Time;durP1;ratioP1;P1;durP2;ratioP2;P2;SDS_P1;SDS_P2;PMS_P1;PMS_P2;Temp;Humidity;BMP_temperature;BMP_pressure;BME280_temperature;BME280_humidity;BME280_pressure;Samples;Min_cycle;Max_cycle;Signal;HPM_P1;HPM_P2
2021/03/27 00:00:27;;;;;;;7.53;4.80;;;;;;;5.43;83.19;101225.66;5272758;28;20025;-71
2021/03/27 00:03:05;;;;;;;9.15;5.53;;;;;;;5.38;82.93;101230.28;5274090;28;20481;-72
2021/03/27 00:05:53;;;;;;;7.72;5.75;;;;;;;5.42;82.86;101233.50;5268116;28;20563;-70
2021/03/27 00:08:53;;;;;;;9.07;5.88;;;;;;;5.42;82.95;101236.09;5272672;28;20051;-70
2021/03/27 00:11:33;;;;;;;8.32;6.82;;;;;;;5.33;84.18;101233.13;5271701;28;20037;-70
2021/03/27 00:14:08;;;;;;;10.48;7.28;;;;;;;5.31;84.41;101224.59;5268835;28;20595;-69
2021/03/27 00:16:48;;;;;;;13.32;8.77;;;;;;;5.32;83.91;101228.84;5268726;28;20033;-69
2021/03/27 00:19:43;;;;;;;11.48;9.00;;;;;;;5.32;84.02;101225.41;5271058;28;20028;-71
2021/03/27 00:22:29;;;;;;;11.35;9.68;;;;;;;5.33;84.61;101227.91;5271273;28;20059;-69
2021/03/27 00:25:08;;;;;;;11.25;9.50;;;;;;;5.31;84.10;101231.53;5273625;28;20021;-71
2021/03/27 00:27:48;;;;;;;11.63;9.18;;;;;;;5.30;83.47;101227.25;5272956;28;20060;-68
2021/03/27 00:30:47;;;;;;;11.60;9.52;;;;;;;5.26;84.99;101220.56;5276189;28;20040;-69
2021/03/27 00:33:24;;;;;;;10.63;9.48;;;;;;;5.21;84.38;101223.41;5276646;28;20033;-72
2021/03/27 00:35:57;;;;;;;12.80;8.52;;;;;;;5.15;84.36;101210.78;5273506;28;20096;-71
2021/03/27 00:38:35;;;;;;;11.50;7.70;;;;;;;5.21;84.83;101227.78;5277087;28;20378;-72
2021/03/27 00:41:12;;;;;;;9.43;7.25;;;;;;;5.12;84.93;101221.34;5276326;28;20381;-71
2021/03/27 00:43:48;;;;;;;9.95;7.38;;;;;;;5.18;85.09;101230.53;5274323;28;20469;-72
2021/03/27 00:46:21;;;;;;;8.70;5.90;;;;;;;5.18;85.17;101236.56;5275574;28;20087;-69
2021/03/27 00:48:58;;;;;;;9.25;5.85;;;;;;;5.20;84.86;101244.31;5276005;28;20540;-69
2021/03/27 00:51:37;;;;;;;7.05;4.78;;;;;;;5.16;84.96;101237.59;5277395;28;20419;-69
2021/03/27 00:54:26;;;;;;;10.07;4.90;;;;;;;5.21;84.90;101240.78;5275555;28;20040;-70
2021/03/27 00:57:23;;;;;;;6.32;4.07;;;;;;;5.20;84.50;101236.50;5275447;28;20469;-71
2021/03/27 01:00:03;;;;;;;6.80;3.42;;;;;;;5.11;85.09;101243.91;5277294;28;20025;-69
2021/03/27 01:02:38;;;;;;;7.72;3.25;;;;;;;5.12;85.34;101237.78;5272798;28;20068;-69
2021/03/27 01:05:13;;;;;;;5.45;3.17;;;;;;;5.10;85.39;101246.56;5275714;28;20038;-69
2021/03/27 01:07:47;;;;;;;11.15;3.25;;;;;;;5.10;84.89;101251.75;5277414;28;20473;-69
2021/03/27 01:10:40;;;;;;;5.43;2.90;;;;;;;5.15;85.58;101256.69;5274519;28;20032;-70
2021/03/27 01:13:23;;;;;;;7.90;3.40;;;;;;;5.16;85.12;101250.59;5276094;28;20119;-70
2021/03/27 01:15:58;;;;;;;7.32;3.17;;;;;;;5.13;85.73;101251.59;5275577;28;20028;-68
2021/03/27 01:18:37;;;;;;;6.10;3.20;;;;;;;5.12;84.58;101240.38;5276009;28;20098;-69
2021/03/27 01:21:14;;;;;;;6.90;3.13;;;;;;;5.07;84.55;101238.94;5275570;28;20035;-68
2021/03/27 01:23:46;;;;;;;9.73;3.25;;;;;;;5.03;85.36;101240.84;5276341;28;20174;-68
2021/03/27 01:26:22;;;;;;;8.75;3.60;;;;;;;5.03;85.77;101248.66;5273613;28;20221;-69
2021/03/27 01:29:01;;;;;;;7.72;3.67;;;;;;;5.02;84.73;101252.19;5276325;28;20044;-70
2021/03/27 01:31:43;;;;;;;8.68;3.60;;;;;;;5.03;84.99;101251.25;5273847;28;20469;-70
2021/03/27 01:34:45;;;;;;;11.07;4.47;;;;;;;5.08;85.42;101258.81;5274249;28;20028;-69
2021/03/27 01:37:33;;;;;;;10.00;3.97;;;;;;;5.10;85.11;101272.53;5275742;28;20470;-68
2021/03/27 01:40:33;;;;;;;9.30;3.58;;;;;;;5.14;84.83;101276.63;5275184;28;20111;-69
2021/03/27 01:43:17;;;;;;;14.93;3.90;;;;;;;5.08;84.33;101277.00;5274506;28;20074;-69
2021/03/27 01:46:16;;;;;;;8.43;3.88;;;;;;;5.07;85.01;101283.06;5275733;28;20481;-68
2021/03/27 01:49:21;;;;;;;11.23;4.10;;;;;;;5.08;84.29;101270.03;5273537;28;20663;-69
2021/03/27 01:52:02;;;;;;;12.05;4.18;;;;;;;4.99;84.86;101273.09;5276828;28;20016;-68
2021/03/27 01:54:48;;;;;;;6.32;3.65;;;;;;;4.99;83.94;101280.91;5274397;28;20532;-69
2021/03/27 01:57:24;;;;;;;8.13;3.75;;;;;;;4.94;84.46;101288.13;5273632;28;20475;-69
2021/03/27 02:00:10;;;;;;;8.77;3.92;;;;;;;4.93;83.88;101289.03;5276716;28;20039;-68
2021/03/27 02:02:53;;;;;;;10.15;4.68;;;;;;;4.85;84.52;101286.03;5269430;28;20174;-68
2021/03/27 02:05:32;;;;;;;8.67;3.80;;;;;;;4.84;84.39;101282.56;5274483;28;20133;-69
2021/03/27 02:08:12;;;;;;;10.52;5.00;;;;;;;4.80;84.25;101290.59;5273470;28;20690;-68
2021/03/27 02:11:05;;;;;;;10.88;4.20;;;;;;;4.80;84.11;101293.19;5272921;28;20077;-68
2021/03/27 02:14:04;;;;;;;12.27;4.38;;;;;;;4.85;83.75;101294.66;5274382;28;20578;-68
2021/03/27 02:16:38;;;;;;;9.63;4.10;;;;;;;4.77;83.90;101289.03;5275297;28;20024;-69
2021/03/27 02:19:32;;;;;;;11.40;4.82;;;;;;;4.76;84.27;101294.28;5274187;28;20025;-68
2021/03/27 02:22:24;;;;;;;10.80;4.38;;;;;;;4.74;84.29;101296.16;5273558;28;20435;-68
2021/03/27 02:25:01;;;;;;;19.70;6.03;;;;;;;4.71;84.79;101296.31;5273705;28;20028;-68
2021/03/27 02:27:43;;;;;;;13.98;5.03;;;;;;;4.70;84.38;101297.19;5275317;28;20032;-68
2021/03/27 02:30:20;;;;;;;12.20;4.28;;;;;;;4.66;84.56;101298.28;5273288;28;20025;-69
2021/03/27 02:33:07;;;;;;;14.95;4.90;;;;;;;4.62;85.00;101295.88;5275185;28;20031;-68
2021/03/27 02:35:47;;;;;;;9.27;4.28;;;;;;;4.62;84.39;101298.47;5274323;28;20037;-68
2021/03/27 02:38:30;;;;;;;13.50;4.30;;;;;;;4.58;85.00;101296.97;5272748;28;20036;-69
2021/03/27 02:41:26;;;;;;;12.90;5.32;;;;;;;4.58;85.12;101296.97;5274936;28;20028;-68
2021/03/27 02:44:05;;;;;;;10.18;4.47;;;;;;;4.58;84.74;101301.28;5271397;28;20036;-69
2021/03/27 02:46:44;;;;;;;13.35;4.70;;;;;;;4.59;84.61;101303.81;5278491;28;20035;-68
2021/03/27 02:49:25;;;;;;;10.93;4.97;;;;;;;4.59;84.70;101311.59;5278620;28;20035;-70
2021/03/27 02:52:14;;;;;;;8.40;4.28;;;;;;;4.59;85.80;101314.19;5277473;28;20024;-68
2021/03/27 02:54:45;;;;;;;10.00;5.03;;;;;;;4.55;84.98;101311.84;5277493;28;20386;-68
2021/03/27 02:57:38;;;;;;;17.33;6.43;;;;;;;4.58;84.89;101312.53;5279620;28;20082;-68
2021/03/27 03:00:20;;;;;;;12.30;5.30;;;;;;;4.58;85.47;101312.53;5276903;28;20029;-69
2021/03/27 03:03:01;;;;;;;11.32;5.43;;;;;;;4.56;85.17;101319.53;5282963;28;20068;-68
2021/03/27 03:05:37;;;;;;;16.88;5.15;;;;;;;4.56;85.33;101316.09;5276485;28;20121;-68
2021/03/27 03:08:35;;;;;;;9.02;5.03;;;;;;;4.57;85.26;101318.59;5278762;28;20032;-68
2021/03/27 03:11:41;;;;;;;11.35;4.70;;;;;;;4.57;84.89;101320.38;5276643;28;20032;-68
2021/03/27 03:14:20;;;;;;;10.90;5.20;;;;;;;4.54;85.44;101326.53;5279362;28;20060;-68
2021/03/27 03:17:00;;;;;;;12.20;4.63;;;;;;;4.55;84.59;101324.81;5278009;28;20062;-68
2021/03/27 03:19:55;;;;;;;11.13;5.13;;;;;;;4.52;85.59;101325.81;5276140;28;20056;-68
2021/03/27 03:22:37;;;;;;;13.45;4.63;;;;;;;4.53;85.40;101330.06;5279447;28;20027;-69
2021/03/27 03:25:16;;;;;;;14.95;4.80;;;;;;;4.54;84.64;101336.09;5275191;28;20029;-68
2021/03/27 03:28:08;;;;;;;11.65;4.85;;;;;;;4.55;85.44;101340.38;5270348;28;20064;-68
2021/03/27 03:31:09;;;;;;;16.10;4.53;;;;;;;4.61;85.35;101364.25;5266687;28;20485;-69
2021/03/27 03:34:05;;;;;;;16.23;4.07;;;;;;;4.59;85.48;101373.88;5271390;28;20547;-70
2021/03/27 03:36:53;;;;;;;10.85;3.70;;;;;;;4.57;85.49;101378.28;5274928;28;20043;-69
2021/03/27 03:39:57;;;;;;;12.48;3.70;;;;;;;4.54;86.39;101368.06;5276022;28;20115;-69
2021/03/27 03:42:40;;;;;;;10.63;3.15;;;;;;;4.50;86.80;101366.53;5275768;28;20039;-71
2021/03/27 03:45:26;;;;;;;12.00;3.35;;;;;;;4.51;87.03;101375.16;5276113;28;20035;-70
2021/03/27 03:48:15;;;;;;;11.05;3.72;;;;;;;4.51;87.50;101357.00;5276603;28;20129;-69
2021/03/27 03:51:01;;;;;;;12.15;4.03;;;;;;;4.49;87.22;101375.25;5277233;28;20485;-69
2021/03/27 03:53:35;;;;;;;12.38;3.80;;;;;;;4.46;87.82;101370.22;5276075;28;20029;-69
2021/03/27 03:56:32;;;;;;;13.90;4.15;;;;;;;4.48;86.93;101383.13;5275102;28;20020;-69
2021/03/27 03:59:24;;;;;;;7.85;3.33;;;;;;;4.48;86.71;101383.13;5278117;28;20109;-70
2021/03/27 04:02:03;;;;;;;9.07;3.55;;;;;;;4.48;86.55;101383.13;5269210;28;20071;-70
2021/03/27 04:04:51;;;;;;;7.45;3.22;;;;;;;4.49;86.89;101377.00;5272642;28;20307;-69
2021/03/27 04:07:57;;;;;;;8.63;3.10;;;;;;;4.52;86.10;101377.69;5276883;28;20182;-69
2021/03/27 04:10:31;;;;;;;10.32;2.90;;;;;;;4.46;85.04;101385.78;5268697;28;20541;-70
2021/03/27 04:13:37;;;;;;;7.65;2.97;;;;;;;4.50;84.41;101387.31;5274901;28;20292;-69
2021/03/27 04:16:15;;;;;;;7.45;2.80;;;;;;;4.45;85.20;101388.47;5262614;28;20078;-70
2021/03/27 04:18:59;;;;;;;6.43;2.45;;;;;;;4.45;84.56;101393.66;5277921;28;20439;-68
2021/03/27 04:22:01;;;;;;;5.18;2.25;;;;;;;4.39;85.15;101398.25;5277353;28;20115;-69
2021/03/27 04:24:45;;;;;;;6.13;2.40;;;;;;;4.40;85.03;101409.47;5246516;28;20055;-69
2021/03/27 04:27:39;;;;;;;4.90;2.72;;;;;;;4.40;85.26;101412.06;5276841;28;20074;-69
2021/03/27 04:30:17;;;;;;;8.70;4.13;;;;;;;4.42;84.99;101405.00;5278064;28;20051;-69
2021/03/27 04:33:09;;;;;;;9.95;3.83;;;;;;;4.45;85.60;101414.41;5275314;28;20031;-68
2021/03/27 04:35:57;;;;;;;10.88;4.22;;;;;;;4.46;85.91;101405.69;5276012;28;20116;-68
2021/03/27 04:38:32;;;;;;;12.13;5.10;;;;;;;4.45;86.14;101410.06;5276003;28;20024;-68
2021/03/27 04:41:09;;;;;;;13.57;5.55;;;;;;;4.48;85.30;101411.66;5275521;28;20381;-68
2021/03/27 04:43:50;;;;;;;16.08;5.72;;;;;;;4.50;85.96;101422.78;5277728;28;20548;-68
2021/03/27 04:46:41;;;;;;;17.65;6.57;;;;;;;4.57;85.93;101425.00;5276566;28;20473;-68
2021/03/27 04:49:21;;;;;;;13.52;5.85;;;;;;;4.51;86.03;101419.28;5274265;28;20039;-68
2021/03/27 04:52:06;;;;;;;16.35;5.85;;;;;;;4.57;86.19;101430.19;5274174;28;20477;-68
2021/03/27 04:54:55;;;;;;;16.70;6.07;;;;;;;4.58;86.02;101436.22;5274102;28;20533;-68
2021/03/27 04:57:41;;;;;;;18.70;5.82;;;;;;;4.57;86.40;101443.16;5277442;28;20115;-69
2021/03/27 05:00:57;;;;;;;18.15;5.78;;;;;;;4.62;86.36;101433.41;5269006;28;20037;-70
2021/03/27 05:03:37;;;;;;;14.73;5.22;;;;;;;4.59;86.33;101437.91;5196305;28;21309;-68
2021/03/27 05:06:20;;;;;;;19.02;5.07;;;;;;;4.62;85.99;101441.19;5264699;28;20066;-68
2021/03/27 05:09:29;;;;;;;20.15;4.13;;;;;;;4.69;85.78;101443.47;5272568;28;20030;-67
2021/03/27 05:12:21;;;;;;;15.80;4.70;;;;;;;4.69;85.45;101444.31;5210563;28;20486;-69
2021/03/27 05:15:10;;;;;;;19.88;4.93;;;;;;;4.71;86.04;101459.81;5275290;28;20029;-70
2021/03/27 05:17:44;;;;;;;15.65;4.25;;;;;;;4.69;86.45;101493.63;5276219;28;20033;-68
2021/03/27 05:20:54;;;;;;;16.90;3.30;;;;;;;4.82;83.58;101483.47;5272707;28;20042;-69
2021/03/27 05:23:54;;;;;;;13.07;3.20;;;;;;;4.57;83.24;101474.31;5241342;28;20048;-68
2021/03/27 05:26:57;;;;;;;12.88;3.65;;;;;;;4.56;84.74;101477.00;5246717;28;20409;-69
2021/03/27 05:29:31;;;;;;;10.13;3.72;;;;;;;4.50;86.41;101491.09;5236079;28;20519;-69
2021/03/27 05:32:33;;;;;;;11.27;3.80;;;;;;;4.36;86.88;101484.00;5274451;28;20028;-68
2021/03/27 05:35:52;;;;;;;14.30;4.13;;;;;;;4.34;86.51;101474.59;5274327;28;20508;-68
2021/03/27 05:38:47;;;;;;;14.32;4.30;;;;;;;4.31;87.82;101495.50;5240940;28;20040;-69
2021/03/27 05:41:27;;;;;;;10.20;4.05;;;;;;;4.39;85.76;101553.03;5276595;28;20024;-69
2021/03/27 05:44:20;;;;;;;5.90;2.10;;;;;;;3.91;81.96;101569.97;5271974;28;20028;-68
2021/03/27 05:46:51;;;;;;;9.02;1.60;;;;;;;3.38;83.65;101565.41;5271207;28;20041;-69
2021/03/27 05:49:39;;;;;;;4.60;1.27;;;;;;;3.25;84.98;101565.09;5276013;28;20588;-69
2021/03/27 05:52:39;;;;;;;3.17;1.05;;;;;;;3.11;85.29;101554.50;5276074;28;20319;-69
2021/03/27 05:55:35;;;;;;;3.58;1.15;;;;;;;2.96;86.11;101574.09;5267436;28;20477;-69
2021/03/27 05:58:25;;;;;;;3.70;1.20;;;;;;;2.95;86.16;101579.31;5275792;28;20074;-69
2021/03/27 06:01:23;;;;;;;4.38;1.80;;;;;;;2.83;86.53;101578.91;5276221;28;20490;-69
2021/03/27 06:04:13;;;;;;;3.58;1.00;;;;;;;2.82;86.81;101572.06;5274375;28;20033;-71
2021/03/27 06:07:05;;;;;;;5.70;1.27;;;;;;;2.80;86.51;101585.94;5272691;28;20028;-69
2021/03/27 06:09:51;;;;;;;5.07;1.42;;;;;;;2.83;86.79;101581.50;5273170;28;20040;-70
2021/03/27 06:12:40;;;;;;;6.43;1.50;;;;;;;2.85;87.02;101590.06;5275266;28;20078;-69
2021/03/27 06:15:33;;;;;;;6.45;1.20;;;;;;;2.83;87.55;101593.59;5275299;28;20401;-69
2021/03/27 06:18:22;;;;;;;4.97;1.30;;;;;;;2.83;86.85;101594.44;5272958;28;20495;-69
2021/03/27 06:21:11;;;;;;;7.22;1.63;;;;;;;2.84;87.95;101595.28;5273907;28;20027;-71
2021/03/27 06:23:52;;;;;;;4.70;1.80;;;;;;;2.78;87.87;101595.53;5273339;28;20036;-71
2021/03/27 06:27:05;;;;;;;8.10;1.73;;;;;;;2.87;87.34;101608.94;5273737;28;20039;-69
2021/03/27 06:30:13;;;;;;;8.57;1.63;;;;;;;2.86;87.11;101619.34;5274196;28;20251;-68
2021/03/27 06:33:21;;;;;;;7.82;1.60;;;;;;;2.83;87.15;101614.31;5275557;28;20063;-71
2021/03/27 06:36:21;;;;;;;5.15;1.50;;;;;;;2.85;87.85;101618.53;5272698;28;20032;-71
2021/03/27 06:39:10;;;;;;;7.45;2.00;;;;;;;2.84;88.16;101622.03;5275554;28;20033;-73
2021/03/27 06:42:10;;;;;;;6.35;1.35;;;;;;;2.97;88.97;101622.34;5274417;28;20163;-70
2021/03/27 06:44:59;;;;;;;5.30;1.42;;;;;;;3.08;88.84;101625.34;5272241;28;20063;-74
2021/03/27 06:47:55;;;;;;;11.57;1.95;;;;;;;3.12;88.75;101624.31;5270236;28;20176;-71
2021/03/27 06:50:37;;;;;;;9.40;2.20;;;;;;;3.16;88.61;101628.47;5270619;28;20025;-71
2021/03/27 06:53:19;;;;;;;7.32;1.58;;;;;;;3.26;88.39;101628.06;5274817;28;20028;-72
2021/03/27 06:56:06;;;;;;;7.90;1.60;;;;;;;3.27;87.92;101640.13;5275137;28;20024;-71
2021/03/27 06:58:55;;;;;;;7.55;2.25;;;;;;;3.36;88.22;101639.75;5270819;28;20372;-69
2021/03/27 07:01:46;;;;;;;10.88;2.13;;;;;;;3.40;88.94;101646.47;5272638;28;20055;-69
2021/03/27 07:04:26;;;;;;;9.30;2.45;;;;;;;3.36;89.09;101637.97;5275184;28;20047;-69
2021/03/27 07:07:22;;;;;;;12.30;3.65;;;;;;;3.49;88.44;101653.03;5269335;28;20081;-70
2021/03/27 07:09:53;;;;;;;11.15;3.15;;;;;;;3.57;88.76;101656.97;5275087;28;20040;-68
2021/03/27 07:12:59;;;;;;;10.17;3.50;;;;;;;3.75;88.64;101652.75;5275176;28;20040;-70
2021/03/27 07:15:30;;;;;;;16.15;3.63;;;;;;;3.84;88.79;101667.06;5270698;28;20036;-69
2021/03/27 07:18:17;;;;;;;10.10;3.30;;;;;;;3.97;88.75;101675.13;5272901;28;20035;-69
2021/03/27 07:21:05;;;;;;;13.52;3.78;;;;;;;4.15;89.61;101674.31;5274486;28;20029;-69
2021/03/27 07:24:34;;;;;;;16.52;4.28;;;;;;;4.36;90.31;101669.94;5271478;28;20032;-68
2021/03/27 07:27:27;;;;;;;22.20;4.95;;;;;;;4.51;89.15;101671.84;5210360;28;20117;-69
2021/03/27 07:30:07;;;;;;;15.57;4.53;;;;;;;4.73;88.72;101686.38;5209840;28;20502;-70
2021/03/27 07:33:23;;;;;;;17.38;4.38;;;;;;;4.93;87.42;101681.09;5262044;28;20413;-68
2021/03/27 07:36:19;;;;;;;15.90;4.05;;;;;;;5.07;86.69;101680.44;5262055;28;20048;-68
2021/03/27 07:39:09;;;;;;;18.38;4.07;;;;;;;5.12;86.14;101684.50;5276898;28;20037;-70
2021/03/27 07:41:44;;;;;;;20.90;4.40;;;;;;;5.25;85.99;101687.34;5274297;28;20387;-70
2021/03/27 07:44:40;;;;;;;18.73;4.95;;;;;;;5.42;85.89;101686.50;5278418;28;20032;-69
2021/03/27 07:47:36;;;;;;;23.60;4.03;;;;;;;5.61;85.48;101696.84;5279198;28;20051;-68
2021/03/27 07:50:21;;;;;;;17.05;4.07;;;;;;;5.71;83.48;101694.59;5275481;28;20061;-69
2021/03/27 07:53:03;;;;;;;19.58;4.50;;;;;;;5.76;83.36;101698.66;5274852;28;20044;-70
2021/03/27 07:55:43;;;;;;;20.30;4.70;;;;;;;5.79;83.16;101692.44;5277236;28;20029;-70
2021/03/27 07:58:33;;;;;;;18.27;4.00;;;;;;;5.77;80.54;101702.09;5274887;28;20039;-71
2021/03/27 08:01:07;;;;;;;13.15;3.22;;;;;;;5.69;80.39;101707.69;5272478;28;20024;-71
2021/03/27 08:03:53;;;;;;;15.57;3.75;;;;;;;5.69;80.70;101719.84;5277911;28;20041;-70
2021/03/27 08:06:32;;;;;;;20.80;4.40;;;;;;;5.59;80.06;101719.44;5275554;28;20524;-68
2021/03/27 08:09:44;;;;;;;14.95;3.95;;;;;;;5.59;80.99;101720.28;5275431;28;20029;-72
2021/03/27 08:12:21;;;;;;;16.13;4.40;;;;;;;5.49;80.25;101733.81;5245885;28;20516;-69
2021/03/27 08:14:58;;;;;;;18.15;4.93;;;;;;;5.47;82.00;101738.25;5276989;28;20036;-70
2021/03/27 08:17:41;;;;;;;18.15;5.25;;;;;;;5.50;81.18;101744.16;5278261;28;20083;-69
2021/03/27 08:20:44;;;;;;;16.23;5.53;;;;;;;5.55;78.91;101756.91;5277433;28;20587;-70
2021/03/27 08:23:29;;;;;;;17.38;5.43;;;;;;;5.61;80.83;101759.22;5276012;28;20044;-70
2021/03/27 08:26:41;;;;;;;16.48;4.50;;;;;;;5.80;79.36;101754.78;5277422;28;20375;-70
2021/03/27 08:29:43;;;;;;;19.30;5.05;;;;;;;5.97;77.32;101764.34;5270906;28;20617;-70
2021/03/27 08:32:20;;;;;;;19.85;4.13;;;;;;;5.93;75.83;101783.63;5248111;28;20109;-69
2021/03/27 08:35:30;;;;;;;10.32;3.08;;;;;;;5.93;73.86;101782.81;5267533;28;20024;-72
2021/03/27 08:38:38;;;;;;;10.68;2.75;;;;;;;5.84;73.91;101802.28;5247866;28;20041;-70
2021/03/27 08:41:26;;;;;;;10.90;2.28;;;;;;;5.64;73.47;101808.44;5269498;28;20028;-70
2021/03/27 08:44:37;;;;;;;8.93;1.90;;;;;;;5.53;72.99;101818.50;5263478;28;20029;-68
2021/03/27 08:47:26;;;;;;;9.80;2.72;;;;;;;5.34;72.67;101822.00;5274859;28;20051;-68
2021/03/27 08:50:09;;;;;;;6.88;1.92;;;;;;;5.19;73.09;101840.03;5271705;28;20024;-70
2021/03/27 08:52:56;;;;;;;8.57;1.95;;;;;;;5.06;73.92;101834.59;5269990;28;20031;-68
2021/03/27 08:55:40;;;;;;;12.82;2.90;;;;;;;5.24;74.56;101832.91;5271768;28;20028;-70
2021/03/27 08:58:19;;;;;;;9.13;2.05;;;;;;;5.44;75.41;101837.16;5270486;28;20036;-69
2021/03/27 09:01:07;;;;;;;9.50;2.25;;;;;;;5.60;75.14;101831.13;5271198;28;20025;-71
2021/03/27 09:03:56;;;;;;;10.90;2.30;;;;;;;5.79;73.60;101843.25;5268553;28;20121;-69
2021/03/27 09:06:49;;;;;;;9.35;2.05;;;;;;;6.05;73.19;101849.81;5268341;28;20545;-69
2021/03/27 09:09:47;;;;;;;8.32;2.25;;;;;;;6.21;73.57;101844.69;5269312;28;20028;-72
2021/03/27 09:12:46;;;;;;;12.88;2.80;;;;;;;6.38;72.56;101849.03;5269009;28;20481;-71
2021/03/27 09:15:37;;;;;;;12.93;3.38;;;;;;;6.51;71.43;101860.50;5273737;28;20040;-70
2021/03/27 09:18:14;;;;;;;15.98;3.33;;;;;;;6.64;72.17;101858.13;5268356;28;20028;-69
2021/03/27 09:20:50;;;;;;;13.52;3.30;;;;;;;6.78;71.12;101866.91;5271875;28;20052;-69
2021/03/27 09:23:50;;;;;;;12.82;3.20;;;;;;;6.72;69.91;101867.19;5267584;28;20075;-70
2021/03/27 09:26:43;;;;;;;14.75;2.97;;;;;;;6.89;70.13;101873.28;5268575;28;20024;-70
2021/03/27 09:29:34;;;;;;;10.05;2.42;;;;;;;7.03;69.52;101882.03;5265678;28;20032;-69
2021/03/27 09:32:09;;;;;;;14.23;2.58;;;;;;;7.11;67.29;101868.59;5266972;28;20250;-71
2021/03/27 09:35:08;;;;;;;13.85;3.53;;;;;;;7.38;68.86;101883.69;5269477;28;20032;-69
2021/03/27 09:37:58;;;;;;;14.68;3.63;;;;;;;7.50;68.56;101888.22;5274066;28;20034;-69
2021/03/27 09:41:07;;;;;;;14.45;3.17;;;;;;;7.78;68.37;101895.34;5275720;28;20112;-69
2021/03/27 09:44:03;;;;;;;15.25;3.15;;;;;;;7.73;66.16;101900.00;5275297;28;20036;-69
2021/03/27 09:46:56;;;;;;;14.75;2.80;;;;;;;7.28;66.70;101928.50;5275015;28;20021;-69
2021/03/27 09:49:44;;;;;;;8.37;2.13;;;;;;;6.93;70.71;101926.91;5274705;28;20036;-69
2021/03/27 09:52:39;;;;;;;8.95;1.95;;;;;;;6.62;69.83;101933.69;5275028;28;20291;-68
2021/03/27 09:55:24;;;;;;;9.98;2.05;;;;;;;6.58;71.29;101937.38;5275712;28;20028;-69
2021/03/27 09:58:05;;;;;;;11.32;2.58;;;;;;;6.76;71.62;101935.59;5273323;28;20028;-69
2021/03/27 10:00:48;;;;;;;12.02;2.58;;;;;;;6.99;70.99;101943.06;5276191;28;20512;-70
2021/03/27 10:03:41;;;;;;;10.80;2.60;;;;;;;7.35;72.83;101946.41;5276115;28;20036;-69
2021/03/27 10:06:38;;;;;;;10.65;2.40;;;;;;;7.37;67.97;101945.41;5275964;28;20043;-69
2021/03/27 10:09:24;;;;;;;9.80;2.53;;;;;;;7.23;67.91;101968.75;5270922;28;20033;-70
2021/03/27 10:12:03;;;;;;;12.80;2.88;;;;;;;6.89;71.10;101977.47;5275771;28;20024;-69
2021/03/27 10:14:39;;;;;;;10.07;2.70;;;;;;;6.55;73.93;101984.38;5275107;28;20035;-68
2021/03/27 10:17:31;;;;;;;13.77;3.00;;;;;;;6.87;76.61;101988.00;5274113;28;20038;-69
2021/03/27 10:20:39;;;;;;;12.45;2.70;;;;;;;7.10;73.04;101978.97;5275241;28;20036;-69
2021/03/27 10:23:34;;;;;;;13.02;2.55;;;;;;;7.44;74.01;101983.25;5275670;28;20111;-70
2021/03/27 10:26:08;;;;;;;10.23;2.10;;;;;;;7.55;70.80;101970.50;5274446;28;20029;-69
2021/03/27 10:28:46;;;;;;;12.65;2.60;;;;;;;7.74;70.09;101979.94;5275876;28;20251;-69
2021/03/27 10:31:23;;;;;;;15.05;3.33;;;;;;;8.04;69.25;101978.22;5274937;28;20460;-69
2021/03/27 10:34:23;;;;;;;10.25;2.65;;;;;;;8.20;65.15;101979.97;5273793;28;20021;-69
2021/03/27 10:37:06;;;;;;;5.13;1.60;;;;;;;8.43;63.83;101991.75;5273355;28;20754;-69
2021/03/27 10:39:56;;;;;;;;;;;;;;;8.66;61.01;101991.25;5275701;28;20024;-69
2021/03/27 10:42:51;;;;;;;7.80;1.75;;;;;;;8.69;57.05;101988.47;5272159;28;20293;-69
2021/03/27 10:45:34;;;;;;;7.13;2.03;;;;;;;8.91;59.98;102002.91;5264443;28;20127;-69
2021/03/27 10:48:05;;;;;;;6.60;1.83;;;;;;;9.04;57.60;102005.59;5269155;28;20385;-69
2021/03/27 10:50:57;;;;;;;10.60;2.30;;;;;;;9.30;58.82;102025.78;5268943;28;20052;-69
2021/03/27 10:53:50;;;;;;;9.00;2.10;;;;;;;9.48;56.06;102008.16;5273709;28;20029;-69
2021/03/27 10:56:56;;;;;;;7.72;1.85;;;;;;;9.63;57.19;102015.06;5274884;28;20516;-69
2021/03/27 10:59:46;;;;;;;8.20;2.10;;;;;;;9.60;52.65;102019.63;5250742;28;20044;-69
2021/03/27 11:02:42;;;;;;;8.73;1.98;;;;;;;9.29;50.78;102026.75;5273413;28;20024;-70
2021/03/27 11:05:19;;;;;;;8.70;1.60;;;;;;;8.84;49.23;102035.53;5276171;28;20028;-69
2021/03/27 11:08:31;;;;;;;6.45;1.67;;;;;;;8.64;50.01;102037.53;5274773;28;20056;-69
2021/03/27 11:11:11;;;;;;;10.32;1.33;;;;;;;8.38;49.02;102053.84;5278419;28;20032;-69
2021/03/27 11:14:01;;;;;;;7.40;1.75;;;;;;;8.29;50.38;102049.94;5277828;28;20032;-70
2021/03/27 11:16:42;;;;;;;7.10;1.73;;;;;;;8.69;51.34;102063.41;5277010;28;20036;-69
2021/03/27 11:19:34;;;;;;;6.72;1.42;;;;;;;9.00;50.14;102062.44;5278558;28;20035;-69
2021/03/27 11:22:25;;;;;;;6.28;1.65;;;;;;;9.16;49.31;102060.59;5278974;28;20028;-69
2021/03/27 11:25:13;;;;;;;7.35;2.00;;;;;;;9.53;50.50;102073.25;5278683;28;20041;-69
2021/03/27 11:28:08;;;;;;;3.58;1.33;;;;;;;9.62;48.42;102080.53;5277920;28;20063;-69
2021/03/27 11:30:57;;;;;;;6.30;2.08;;;;;;;9.69;46.77;102095.78;5278089;28;20058;-69
2021/03/27 11:33:30;;;;;;;9.48;1.63;;;;;;;9.67;45.87;102081.13;5278381;28;20170;-69
2021/03/27 11:36:20;;;;;;;6.80;1.75;;;;;;;9.70;47.94;102079.16;5275934;28;20119;-70
2021/03/27 11:39:04;;;;;;;6.80;1.67;;;;;;;9.81;46.24;102095.94;5278743;28;20081;-70
2021/03/27 11:41:43;;;;;;;;;;;;;;;9.81;47.62;102083.75;5279226;28;20073;-70
2021/03/27 11:44:42;;;;;;;4.93;1.60;;;;;;;9.63;47.55;102095.31;5267676;28;19951;-69
2021/03/27 11:47:30;;;;;;;7.45;2.15;;;;;;;9.72;49.34;102113.06;5278705;28;20036;-69
2021/03/27 11:50:17;;;;;;;7.90;1.45;;;;;;;9.78;46.51;102101.41;5277882;28;20029;-69
2021/03/27 11:53:10;;;;;;;10.45;2.00;;;;;;;10.03;46.22;102114.63;5273101;28;20465;-69
2021/03/27 11:55:57;;;;;;;7.65;1.77;;;;;;;9.90;47.57;102121.59;5276861;28;20527;-71
2021/03/27 12:01:41;;;;;;;9.32;2.17;;;;;;;9.61;47.75;102121.56;5277542;28;20040;-69
2021/03/27 12:04:40;;;;;;;9.70;2.38;;;;;;;9.79;48.86;102124.84;5277846;28;20532;-69
2021/03/27 12:07:23;;;;;;;9.52;1.90;;;;;;;9.96;49.20;102144.75;5278939;28;20032;-69
2021/03/27 12:10:19;;;;;;;9.45;2.30;;;;;;;10.05;49.21;102143.34;5275967;28;20107;-69
2021/03/27 12:13:00;;;;;;;6.28;1.63;;;;;;;10.22;49.45;102146.59;5277840;28;20029;-70
2021/03/27 12:15:35;;;;;;;7.47;1.73;;;;;;;10.23;47.56;102153.53;5275716;28;20070;-70
2021/03/27 12:18:06;;;;;;;8.48;2.05;;;;;;;10.30;46.90;102143.53;5277020;28;20119;-70
2021/03/27 12:21:01;;;;;;;6.00;1.73;;;;;;;10.48;48.62;102152.84;5278131;28;20034;-70
2021/03/27 12:23:42;;;;;;;7.68;1.80;;;;;;;10.54;47.85;102162.09;5278470;28;20040;-69
2021/03/27 12:26:29;;;;;;;5.72;1.60;;;;;;;10.68;47.15;102166.44;5276579;28;20020;-69
2021/03/27 12:29:09;;;;;;;8.18;1.70;;;;;;;10.73;48.27;102181.91;5276271;28;20126;-70
2021/03/27 12:32:10;;;;;;;8.18;1.77;;;;;;;10.77;47.47;102165.03;5278008;28;20493;-70
2021/03/27 12:35:02;;;;;;;11.57;2.13;;;;;;;10.65;47.50;102175.38;5275593;28;20040;-69
2021/03/27 12:37:41;;;;;;;6.97;1.67;;;;;;;10.69;47.04;102173.41;5276785;28;20040;-69
2021/03/27 12:40:30;;;;;;;8.63;1.90;;;;;;;10.77;48.67;102171.13;5277776;28;20031;-69
2021/03/27 12:43:07;;;;;;;11.65;2.47;;;;;;;10.83;48.02;102175.13;5275114;28;20036;-69
2021/03/27 12:45:42;;;;;;;9.25;2.03;;;;;;;10.65;46.22;102172.75;5269297;28;20025;-70
2021/03/27 12:48:38;;;;;;;8.48;2.00;;;;;;;10.37;46.88;102176.25;5267690;28;20033;-69
2021/03/27 12:51:35;;;;;;;8.65;2.10;;;;;;;10.06;47.01;102185.16;5270748;28;20020;-71
2021/03/27 12:54:22;;;;;;;8.48;1.98;;;;;;;9.81;47.27;102185.81;5273883;28;20093;-69
2021/03/27 12:57:13;;;;;;;8.48;1.92;;;;;;;9.67;48.70;102198.88;5268978;28;20024;-69
2021/03/27 13:00:06;;;;;;;9.13;2.00;;;;;;;9.54;51.52;102210.97;5273478;28;20488;-69
2021/03/27 13:02:43;;;;;;;11.13;2.13;;;;;;;9.31;52.26;102207.09;5252012;28;20051;-69
2021/03/27 13:05:18;;;;;;;8.18;1.85;;;;;;;9.09;52.92;102210.06;5270088;28;20027;-69
2021/03/27 13:08:04;;;;;;;12.90;2.28;;;;;;;8.99;54.77;102213.22;5272107;28;20021;-69